createdAt,value
2023-03-06T00:00:51.880Z,14.81
2023-03-06T00:03:20.791Z,12.94
2023-03-06T00:05:48.870Z,12.78
2023-03-06T00:08:16.719Z,12.98
2023-03-06T00:10:44.656Z,13.67
2023-03-06T00:13:15.300Z,13.81
2023-03-06T00:15:43.135Z,13.48
2023-03-06T00:18:10.983Z,13.67
2023-03-06T00:20:40.593Z,13.21
2023-03-06T00:23:09.736Z,13.37
2023-03-06T00:25:38.881Z,13.01
2023-03-06T00:28:06.806Z,12.81
2023-03-06T00:30:34.811Z,12.65
2023-03-06T00:33:03.143Z,12.16
2023-03-06T00:35:31.576Z,12.48
2023-03-06T00:37:59.854Z,12.71
2023-03-06T00:40:27.714Z,12.82
2023-03-06T00:42:55.570Z,12.50
2023-03-06T00:45:23.645Z,11.78
2023-03-06T00:47:51.992Z,11.67
2023-03-06T00:50:19.983Z,11.09
2023-03-06T00:52:47.869Z,11.48
2023-03-06T00:55:15.850Z,11.47
2023-03-06T00:57:43.728Z,11.87
2023-03-06T01:00:12.980Z,11.95
2023-03-06T01:02:41.471Z,12.27
2023-03-06T01:05:10.399Z,12.61
2023-03-06T01:07:38.766Z,11.96
2023-03-06T01:10:08.115Z,11.66
2023-03-06T01:12:36.146Z,11.81
2023-03-06T01:15:04.936Z,12.14
2023-03-06T01:17:32.736Z,11.89
2023-03-06T01:20:00.651Z,12.05
2023-03-06T01:22:28.595Z,11.46
2023-03-06T01:24:56.474Z,11.73
2023-03-06T01:27:24.400Z,11.82
2023-03-06T01:29:52.225Z,11.69
2023-03-06T01:32:21.501Z,11.62
2023-03-06T01:34:49.502Z,11.73
2023-03-06T01:37:17.376Z,12.29
2023-03-06T01:39:45.241Z,11.32
2023-03-06T01:42:13.126Z,11.51
2023-03-06T01:45:07.790Z,11.06
2023-03-06T01:47:36.386Z,11.35
2023-03-06T01:50:06.679Z,11.60
2023-03-06T01:52:54.254Z,11.15
2023-03-06T01:55:28.229Z,11.32
2023-03-06T01:57:59.281Z,11.01
2023-03-06T02:00:29.976Z,11.20
2023-03-06T02:03:07.206Z,11.45
2023-03-06T02:05:40.103Z,11.84
2023-03-06T02:08:12.615Z,11.06
2023-03-06T02:11:00.917Z,12.01
2023-03-06T02:13:29.830Z,10.90
2023-03-06T02:15:58.706Z,11.09
2023-03-06T02:18:27.913Z,11.62
2023-03-06T02:20:59.385Z,11.37
2023-03-06T02:23:52.145Z,11.36
2023-03-06T02:26:22.083Z,11.41
2023-03-06T02:28:50.017Z,11.00
2023-03-06T02:31:26.903Z,11.49
2023-03-06T02:34:28.700Z,11.98
2023-03-06T02:37:05.617Z,11.10
2023-03-06T02:39:34.474Z,11.57
2023-03-06T02:42:02.494Z,11.69
2023-03-06T02:44:35.186Z,12.12
2023-03-06T02:47:03.091Z,11.24
2023-03-06T02:49:31.429Z,11.32
2023-03-06T02:51:59.385Z,11.38
2023-03-06T02:54:27.193Z,10.85
2023-03-06T02:56:55.185Z,11.49
2023-03-06T02:59:23.148Z,10.88
2023-03-06T03:01:51.776Z,11.08
2023-03-06T03:04:19.999Z,11.43
2023-03-06T03:06:47.851Z,11.75
2023-03-06T03:09:15.771Z,11.17
2023-03-06T03:11:43.670Z,11.59
2023-03-06T03:14:11.558Z,11.06
2023-03-06T03:16:39.487Z,11.42
2023-03-06T03:19:07.509Z,11.16
2023-03-06T03:21:35.789Z,10.94
2023-03-06T03:24:03.832Z,11.40
2023-03-06T03:26:31.692Z,11.49
2023-03-06T03:29:13.948Z,10.68
2023-03-06T03:31:41.953Z,11.10
2023-03-06T03:34:10.323Z,11.07
2023-03-06T03:36:40.706Z,11.21
2023-03-06T03:39:10.394Z,11.40
2023-03-06T03:41:38.835Z,10.84
2023-03-06T03:44:09.270Z,10.96
2023-03-06T03:46:37.311Z,11.12
2023-03-06T03:49:09.379Z,11.73
2023-03-06T03:51:38.357Z,11.07
2023-03-06T03:54:06.866Z,11.50
2023-03-06T03:56:40.747Z,11.87
2023-03-06T03:59:15.260Z,11.57
2023-03-06T04:01:52.558Z,11.68
2023-03-06T04:04:20.573Z,11.56
2023-03-06T04:06:48.776Z,11.83
2023-03-06T04:09:19.130Z,11.75
2023-03-06T04:11:47.057Z,11.74
2023-03-06T04:14:14.949Z,10.96
2023-03-06T04:16:43.397Z,11.63
2023-03-06T04:19:11.762Z,11.92
2023-03-06T04:21:40.431Z,12.06
2023-03-06T04:24:09.744Z,12.08
2023-03-06T04:26:37.658Z,11.61
2023-03-06T04:29:06.275Z,11.86
2023-03-06T04:31:34.435Z,11.94
2023-03-06T04:34:02.736Z,12.85
2023-03-06T04:36:33.883Z,12.85
2023-03-06T04:39:13.054Z,12.12
2023-03-06T04:41:42.263Z,12.98
2023-03-06T04:44:10.408Z,12.91
2023-03-06T04:46:38.281Z,12.15
2023-03-06T04:49:06.121Z,12.19
2023-03-06T04:51:36.782Z,12.06
2023-03-06T04:54:05.462Z,17.52
2023-03-06T04:56:34.730Z,29.32
2023-03-06T04:59:04.269Z,13.82
2023-03-06T05:01:32.186Z,11.68
2023-03-06T05:04:00.143Z,11.59
2023-03-06T05:06:28.068Z,11.22
2023-03-06T05:08:55.943Z,10.98
2023-03-06T05:11:23.794Z,11.63
2023-03-06T05:13:51.682Z,11.99
2023-03-06T05:16:19.611Z,12.54
2023-03-06T05:18:50.408Z,12.46
2023-03-06T05:21:18.470Z,13.06
2023-03-06T05:23:47.559Z,13.96
2023-03-06T05:26:15.561Z,14.06
2023-03-06T05:28:43.479Z,14.08
2023-03-06T05:31:11.477Z,14.33
2023-03-06T05:33:39.286Z,14.39
2023-03-06T05:36:09.285Z,14.36
2023-03-06T05:38:37.198Z,14.81
2023-03-06T05:41:05.191Z,14.61
2023-03-06T05:43:33.089Z,14.83
2023-03-06T05:46:03.529Z,15.30
2023-03-06T05:48:35.961Z,14.97
2023-03-06T05:51:05.237Z,15.00
2023-03-06T05:53:33.199Z,14.90
2023-03-06T05:56:03.957Z,15.41
2023-03-06T05:58:33.616Z,15.98
2023-03-06T06:01:09.447Z,15.69
2023-03-06T06:03:37.778Z,15.25
2023-03-06T06:06:07.071Z,15.57
2023-03-06T06:08:35.722Z,15.36
2023-03-06T06:11:08.203Z,15.89
2023-03-06T06:13:38.212Z,15.20
2023-03-06T06:16:08.112Z,15.78
2023-03-06T06:18:41.115Z,15.25
2023-03-06T06:21:11.549Z,15.38
2023-03-06T06:23:39.543Z,15.15
2023-03-06T06:26:09.422Z,15.05
2023-03-06T06:28:37.468Z,15.00
2023-03-06T06:31:10.562Z,16.33
2023-03-06T06:33:39.495Z,16.63
2023-03-06T06:36:16.001Z,16.55
2023-03-06T06:38:43.924Z,14.70
2023-03-06T06:41:38.809Z,15.30
2023-03-06T06:44:00.242Z,15.00
2023-03-06T06:49:17.694Z,16.02
2023-03-06T06:51:45.616Z,16.12
2023-03-06T06:54:13.719Z,16.13
2023-03-06T06:56:41.617Z,15.88
2023-03-06T06:59:16.710Z,16.81
2023-03-06T07:01:45.442Z,16.76
2023-03-06T07:04:13.831Z,16.45
2023-03-06T07:06:42.639Z,16.27
2023-03-06T07:09:12.246Z,15.45
2023-03-06T07:11:41.468Z,16.36
2023-03-06T07:14:09.425Z,15.73
2023-03-06T07:16:37.376Z,15.70
2023-03-06T07:19:06.319Z,15.88
2023-03-06T07:21:34.346Z,16.74
2023-03-06T07:24:02.294Z,16.01
2023-03-06T07:26:32.733Z,16.20
2023-03-06T07:29:03.630Z,16.38
2023-03-06T07:31:32.084Z,16.35
2023-03-06T07:34:00.230Z,16.23
2023-03-06T07:36:28.699Z,16.18
2023-03-06T07:38:56.536Z,17.36
2023-03-06T07:41:24.427Z,16.59
2023-03-06T07:43:52.374Z,16.74
2023-03-06T07:46:20.362Z,16.67
2023-03-06T07:48:48.264Z,17.31
2023-03-06T07:51:21.453Z,17.78
2023-03-06T07:53:50.370Z,17.48
2023-03-06T07:56:18.198Z,17.82
2023-03-06T07:58:47.685Z,17.46
2023-03-06T08:01:20.467Z,17.41
2023-03-06T08:03:50.082Z,17.51
2023-03-06T08:06:22.271Z,17.25
2023-03-06T08:08:52.325Z,17.28
2023-03-06T08:11:23.105Z,17.54
2023-03-06T08:13:52.854Z,17.98
2023-03-06T08:16:26.792Z,18.20
2023-03-06T08:18:55.423Z,18.85
2023-03-06T08:21:26.428Z,18.90
2023-03-06T08:23:54.824Z,18.31
2023-03-06T08:26:25.529Z,17.76
2023-03-06T08:28:54.890Z,18.67
2023-03-06T08:31:27.744Z,18.92
2023-03-06T08:33:57.162Z,18.45
2023-03-06T08:36:25.559Z,17.76
2023-03-06T08:38:53.538Z,18.12
2023-03-06T08:41:21.653Z,18.23
2023-03-06T08:43:50.465Z,18.82
2023-03-06T08:46:19.650Z,18.84
2023-03-06T08:48:48.253Z,17.68
2023-03-06T08:51:17.303Z,18.55
2023-03-06T08:53:45.906Z,19.31
2023-03-06T08:56:21.590Z,19.41
2023-03-06T08:58:50.246Z,18.20
2023-03-06T09:01:27.040Z,18.04
2023-03-06T09:03:57.022Z,18.43
2023-03-06T09:06:26.860Z,19.34
2023-03-06T09:08:55.499Z,19.48
2023-03-06T09:11:25.104Z,19.26
2023-03-06T09:13:53.921Z,18.54
2023-03-06T09:16:22.026Z,18.79
2023-03-06T09:18:52.831Z,19.20
2023-03-06T09:21:21.965Z,19.32
2023-03-06T09:23:50.439Z,19.76
2023-03-06T09:26:18.703Z,19.38
2023-03-06T09:28:47.382Z,22.47
2023-03-06T09:31:18.203Z,20.92
2023-03-06T09:33:47.469Z,19.05
2023-03-06T09:36:20.400Z,19.41
2023-03-06T09:38:50.028Z,20.03
2023-03-06T09:41:29.598Z,19.76
2023-03-06T09:44:15.392Z,19.28
2023-03-06T09:47:08.042Z,20.02
2023-03-06T09:49:44.805Z,20.38
2023-03-06T09:52:19.883Z,19.40
2023-03-06T09:54:54.525Z,20.35
2023-03-06T09:57:29.380Z,19.67
2023-03-06T10:00:04.253Z,20.16
2023-03-06T10:02:49.263Z,19.90
2023-03-06T10:05:22.695Z,19.12
2023-03-06T10:07:58.567Z,19.73
2023-03-06T10:10:39.755Z,19.76
2023-03-06T10:13:24.400Z,19.48
2023-03-06T10:16:01.925Z,19.13
2023-03-06T10:18:30.020Z,19.16
2023-03-06T10:21:13.607Z,19.06
2023-03-06T10:23:55.112Z,18.82
2023-03-06T10:26:26.249Z,18.60
2023-03-06T10:28:54.149Z,18.86
2023-03-06T10:31:25.282Z,19.59
2023-03-06T10:34:15.262Z,21.75
2023-03-06T10:36:43.231Z,19.22
2023-03-06T10:39:21.106Z,19.11
2023-03-06T10:41:49.612Z,19.46
2023-03-06T10:44:19.205Z,19.13
2023-03-06T10:46:51.651Z,19.25
2023-03-06T10:49:28.349Z,19.73
2023-03-06T10:52:05.699Z,19.16
2023-03-06T10:54:36.972Z,18.80
2023-03-06T10:57:20.804Z,18.59
2023-03-06T11:00:00.302Z,19.38
2023-03-06T11:02:36.586Z,19.21
2023-03-06T11:05:06.224Z,19.11
2023-03-06T11:07:36.440Z,18.26
2023-03-06T11:10:23.667Z,18.93
2023-03-06T11:13:04.618Z,19.02
2023-03-06T11:15:32.560Z,19.11
2023-03-06T11:18:20.299Z,19.08
2023-03-06T11:20:54.301Z,19.25
2023-03-06T11:23:35.515Z,18.93
2023-03-06T11:26:20.173Z,19.28
2023-03-06T11:29:03.133Z,20.14
2023-03-06T11:31:38.924Z,19.99
2023-03-06T11:34:42.107Z,20.23
2023-03-06T11:37:34.495Z,20.27
2023-03-06T11:40:11.846Z,19.96
2023-03-06T11:42:44.328Z,21.62
2023-03-06T11:45:27.503Z,21.23
2023-03-06T11:48:14.711Z,22.96
2023-03-06T11:50:52.643Z,21.66
2023-03-06T11:53:32.157Z,21.43
2023-03-06T11:56:18.437Z,21.42
2023-03-06T11:59:01.326Z,21.05
2023-03-06T12:01:47.316Z,21.37
2023-03-06T12:04:33.725Z,21.36
2023-03-06T12:07:26.565Z,21.20
2023-03-06T12:10:19.221Z,21.12
2023-03-06T12:13:08.392Z,21.52
2023-03-06T12:16:26.170Z,20.78
2023-03-06T12:19:12.667Z,21.42
2023-03-06T12:22:03.448Z,21.18
2023-03-06T12:24:55.467Z,21.02
2023-03-06T12:27:48.679Z,24.69
2023-03-06T12:30:34.779Z,21.28
2023-03-06T12:33:27.010Z,21.20
2023-03-06T12:35:59.986Z,20.01
2023-03-06T12:39:00.711Z,19.69
2023-03-06T12:41:40.711Z,19.97
2023-03-06T12:44:21.037Z,21.39
2023-03-06T12:46:59.418Z,21.52
2023-03-06T12:49:33.444Z,21.47
2023-03-06T12:52:05.252Z,20.88
2023-03-06T12:54:38.928Z,21.00
2023-03-06T12:57:09.259Z,21.45
2023-03-06T12:59:47.908Z,20.76
2023-03-06T13:02:40.051Z,22.32
2023-03-06T13:05:14.031Z,21.45
2023-03-06T13:07:41.913Z,21.03
2023-03-06T13:10:16.293Z,21.25
2023-03-06T13:13:01.226Z,21.72
2023-03-06T13:15:33.798Z,21.49
2023-03-06T13:18:25.893Z,21.74
2023-03-06T13:20:55.536Z,20.83
2023-03-06T13:23:29.725Z,20.56
2023-03-06T13:25:58.436Z,21.26
2023-03-06T13:28:46.345Z,21.55
2023-03-06T13:31:33.973Z,21.73
2023-03-06T13:34:26.440Z,21.10
2023-03-06T13:37:16.889Z,22.85
2023-03-06T13:39:57.346Z,21.39
2023-03-06T13:42:55.316Z,21.75
2023-03-06T13:45:27.580Z,21.66
2023-03-06T13:48:22.575Z,21.45
2023-03-06T13:50:47.728Z,21.81
2023-03-06T13:53:36.958Z,21.67
2023-03-06T13:56:26.408Z,20.41
2023-03-06T13:59:33.586Z,19.80
2023-03-06T14:02:39.148Z,20.36
2023-03-06T14:05:14.129Z,20.38
2023-03-06T14:07:47.409Z,20.56
2023-03-06T14:10:25.813Z,20.16
2023-03-06T14:13:04.693Z,20.54
2023-03-06T14:15:50.873Z,20.85
2023-03-06T14:18:38.363Z,23.93
2023-03-06T14:21:14.410Z,24.32
2023-03-06T14:23:45.047Z,20.76
2023-03-06T14:26:22.875Z,20.96
2023-03-06T14:28:59.143Z,21.36
2023-03-06T14:31:36.527Z,21.29
2023-03-06T14:34:15.090Z,20.74
2023-03-06T14:36:46.583Z,20.98
2023-03-06T14:39:33.376Z,20.17
2023-03-06T14:42:27.081Z,20.96
2023-03-06T14:45:15.869Z,21.60
2023-03-06T14:47:49.284Z,21.25
2023-03-06T14:50:21.506Z,21.53
2023-03-06T14:53:26.088Z,23.30
2023-03-06T14:56:00.480Z,22.39
2023-03-06T14:58:50.159Z,21.46
2023-03-06T15:01:28.024Z,21.60
2023-03-06T15:03:59.648Z,22.23
2023-03-06T15:06:41.871Z,21.82
2023-03-06T15:09:26.596Z,22.23
2023-03-06T15:11:57.539Z,21.93
2023-03-06T15:14:43.044Z,21.78
2023-03-06T15:17:19.981Z,22.62
2023-03-06T15:19:56.720Z,21.78
2023-03-06T15:22:37.940Z,23.40
2023-03-06T15:25:27.183Z,22.66
2023-03-06T15:28:01.855Z,22.02
2023-03-06T15:30:35.091Z,23.23
2023-03-06T15:33:27.923Z,23.54
2023-03-06T15:36:01.759Z,23.13
2023-03-06T15:38:42.198Z,23.03
2023-03-06T15:41:42.026Z,23.25
2023-03-06T15:44:13.233Z,23.61
2023-03-06T15:46:41.703Z,22.73
2023-03-06T15:49:14.932Z,22.89
2023-03-06T15:51:42.908Z,22.66
2023-03-06T15:54:12.645Z,22.97
2023-03-06T15:56:43.295Z,22.78
2023-03-06T15:59:23.613Z,23.80
2023-03-06T16:01:52.604Z,24.78
2023-03-06T16:04:20.715Z,23.32
2023-03-06T16:06:48.826Z,23.18
2023-03-06T16:09:16.734Z,27.23
2023-03-06T16:11:45.505Z,25.63
2023-03-06T16:14:21.129Z,22.66
2023-03-06T16:16:50.443Z,23.13
2023-03-06T16:19:27.393Z,24.21
2023-03-06T16:21:56.770Z,25.64
2023-03-06T16:24:26.258Z,24.77
2023-03-06T16:26:55.017Z,24.05
2023-03-06T16:29:25.932Z,22.56
2023-03-06T16:31:55.492Z,23.01
2023-03-06T16:34:23.921Z,23.40
2023-03-06T16:36:51.852Z,22.90
2023-03-06T16:39:22.171Z,22.84
2023-03-06T16:41:50.220Z,23.24
2023-03-06T16:44:19.234Z,23.52
2023-03-06T16:46:49.088Z,23.82
2023-03-06T16:49:23.365Z,24.02
2023-03-06T16:51:52.776Z,24.45
2023-03-06T16:54:21.889Z,25.33
2023-03-06T16:56:49.901Z,24.63
2023-03-06T16:59:17.841Z,25.33
2023-03-06T17:01:45.781Z,24.61
2023-03-06T17:04:13.708Z,27.91
2023-03-06T17:06:41.924Z,31.22
2023-03-06T17:09:14.429Z,29.55
2023-03-06T17:11:46.824Z,26.42
2023-03-06T17:14:14.965Z,26.37
2023-03-06T17:16:42.915Z,26.50
2023-03-06T17:19:14.400Z,26.18
2023-03-06T17:21:43.851Z,26.32
2023-03-06T17:24:11.811Z,26.11
2023-03-06T17:26:40.258Z,25.52
2023-03-06T17:29:09.279Z,26.90
2023-03-06T17:31:37.143Z,30.94
2023-03-06T17:34:05.582Z,27.27
2023-03-06T17:36:33.905Z,26.03
2023-03-06T17:39:02.963Z,26.82
2023-03-06T17:41:32.797Z,27.17
2023-03-06T17:44:01.784Z,26.88
2023-03-06T17:46:31.822Z,27.61
2023-03-06T17:48:59.752Z,28.87
2023-03-06T17:51:27.688Z,27.83
2023-03-06T17:53:55.711Z,27.12
2023-03-06T17:56:23.714Z,26.67
2023-03-06T17:58:51.570Z,27.37
2023-03-06T18:01:22.668Z,27.06
2023-03-06T18:03:51.641Z,27.24
2023-03-06T18:06:21.150Z,28.50
2023-03-06T18:08:52.703Z,29.49
2023-03-06T18:11:22.289Z,29.19
2023-03-06T18:13:51.249Z,29.38
2023-03-06T18:16:21.760Z,29.76
2023-03-06T18:18:55.355Z,29.15
2023-03-06T18:21:24.774Z,29.28
2023-03-06T18:23:52.722Z,29.63
2023-03-06T18:26:23.386Z,30.94
2023-03-06T18:29:06.199Z,31.31
2023-03-06T18:31:37.990Z,31.32
2023-03-06T18:34:14.777Z,31.64
2023-03-06T18:36:43.603Z,31.99
2023-03-06T18:39:12.869Z,32.37
2023-03-06T18:41:41.376Z,33.60
2023-03-06T18:44:09.294Z,34.30
2023-03-06T18:46:38.413Z,33.48
2023-03-06T18:49:06.734Z,34.22
2023-03-06T18:51:35.272Z,33.27
2023-03-06T18:54:04.715Z,33.99
2023-03-06T18:56:33.652Z,34.13
2023-03-06T18:59:05.794Z,30.68
2023-03-06T19:01:34.464Z,31.02
2023-03-06T19:04:04.144Z,30.79
2023-03-06T19:06:32.242Z,31.04
2023-03-06T19:09:01.816Z,29.77
2023-03-06T19:11:31.965Z,30.51
2023-03-06T19:14:00.268Z,29.85
2023-03-06T19:16:30.241Z,42.47
2023-03-06T19:18:58.946Z,31.11
2023-03-06T19:21:28.162Z,29.63
2023-03-06T19:23:56.219Z,27.61
2023-03-06T19:26:25.187Z,26.66
2023-03-06T19:28:53.144Z,27.69
2023-03-06T19:31:26.881Z,27.38
2023-03-06T19:33:56.738Z,26.97
2023-03-06T19:36:28.746Z,28.46
2023-03-06T19:38:58.844Z,29.76
2023-03-06T19:41:27.324Z,27.26
2023-03-06T19:43:58.410Z,27.23
2023-03-06T19:46:27.466Z,27.94
2023-03-06T19:48:57.851Z,27.57
2023-03-06T19:51:26.882Z,27.22
2023-03-06T19:53:56.668Z,27.32
2023-03-06T19:56:28.902Z,26.06
2023-03-06T19:58:57.404Z,26.02
2023-03-06T20:01:27.629Z,25.57
2023-03-06T20:04:00.340Z,25.83
2023-03-06T20:06:31.506Z,27.33
2023-03-06T20:09:01.679Z,26.74
2023-03-06T20:11:32.579Z,27.29
2023-03-06T20:14:02.578Z,26.51
2023-03-06T20:16:31.388Z,29.87
2023-03-06T20:19:00.966Z,26.02
2023-03-06T20:21:31.750Z,26.05
2023-03-06T20:23:59.730Z,26.53
2023-03-06T20:26:29.647Z,26.82
2023-03-06T20:28:58.392Z,26.69
2023-03-06T20:31:28.661Z,27.71
2023-03-06T20:33:58.206Z,28.36
2023-03-06T20:36:40.266Z,28.24
2023-03-06T20:39:11.851Z,27.54
2023-03-06T20:41:40.079Z,25.70
2023-03-06T20:44:11.477Z,27.32
2023-03-06T20:46:40.601Z,26.89
2023-03-06T20:49:08.705Z,26.39
2023-03-06T20:51:39.198Z,28.07
2023-03-06T20:54:10.064Z,26.33
2023-03-06T20:56:39.666Z,27.25
2023-03-06T20:59:11.561Z,26.87
2023-03-06T21:01:42.151Z,30.94
2023-03-06T21:04:13.560Z,30.06
2023-03-06T21:06:46.404Z,30.75
2023-03-06T21:09:16.513Z,29.49
2023-03-06T21:11:44.689Z,26.92
2023-03-06T21:14:14.265Z,28.34
2023-03-06T21:16:42.486Z,30.84
2023-03-06T21:19:10.684Z,27.88
2023-03-06T21:21:38.563Z,26.68
2023-03-06T21:24:06.558Z,26.26
2023-03-06T21:26:34.456Z,27.38
2023-03-06T21:29:02.610Z,26.60
2023-03-06T21:31:31.496Z,28.77
2023-03-06T21:33:59.686Z,25.75
2023-03-06T21:36:28.198Z,29.94
2023-03-06T21:38:56.130Z,27.43
2023-03-06T21:41:26.980Z,26.35
2023-03-06T21:44:00.184Z,25.76
2023-03-06T21:46:28.568Z,25.79
2023-03-06T21:48:57.328Z,28.65
2023-03-06T21:51:26.715Z,27.54
2023-03-06T21:53:55.484Z,27.65
2023-03-06T21:56:25.430Z,28.43
2023-03-06T21:58:53.448Z,27.61
2023-03-06T22:01:25.238Z,27.41
2023-03-06T22:03:53.505Z,26.73
2023-03-06T22:06:26.693Z,27.53
2023-03-06T22:08:56.597Z,29.33
2023-03-06T22:11:25.567Z,29.92
2023-03-06T22:13:53.692Z,27.30
2023-03-06T22:16:21.886Z,27.39
2023-03-06T22:18:51.273Z,27.55
2023-03-06T22:21:21.616Z,25.62
2023-03-06T22:23:59.154Z,28.00
2023-03-06T22:26:29.220Z,26.77
2023-03-06T22:28:57.115Z,26.31
2023-03-06T22:31:28.483Z,26.49
2023-03-06T22:33:59.285Z,28.21
2023-03-06T22:36:30.404Z,25.63
2023-03-06T22:39:00.733Z,26.22
2023-03-06T22:41:29.685Z,25.66
2023-03-06T22:43:59.941Z,26.90
2023-03-06T22:46:28.506Z,27.04
2023-03-06T22:49:00.181Z,28.22
2023-03-06T22:51:29.529Z,27.80
2023-03-06T22:53:58.139Z,28.26
2023-03-06T22:56:26.048Z,26.80
2023-03-06T22:58:53.953Z,26.64
2023-03-06T23:01:25.336Z,26.79
2023-03-06T23:03:55.747Z,26.92
2023-03-06T23:06:26.382Z,27.74
2023-03-06T23:09:03.532Z,27.04
2023-03-06T23:11:32.566Z,27.23
2023-03-06T23:14:19.763Z,27.40
2023-03-06T23:17:06.864Z,27.42
2023-03-06T23:19:53.532Z,27.48
2023-03-06T23:22:39.665Z,26.80
2023-03-06T23:25:26.011Z,27.29
2023-03-06T23:27:55.674Z,25.63
2023-03-06T23:30:23.497Z,26.90
2023-03-06T23:32:51.350Z,25.53
2023-03-06T23:35:19.251Z,26.07
2023-03-06T23:37:47.341Z,25.21
2023-03-06T23:40:15.592Z,25.84
2023-03-06T23:42:43.555Z,23.67
2023-03-06T23:45:11.781Z,22.96
2023-03-06T23:47:39.702Z,23.31
2023-03-06T23:50:07.989Z,23.50
2023-03-06T23:52:35.883Z,24.96
2023-03-06T23:55:05.584Z,25.67
2023-03-06T23:57:33.421Z,25.16
